Summitville, Colorado
Current Conditions -  °F | °C
As of 3:10 PM on Friday 24 Oct 2014 (Local Time) from KRCV Reporting Station
Clear Clear  
Wind Chill: 68°   Ceiling: Unl
Heat Index: 68°   Visibility: 10mi
Dew Point: 28°   Wind: 10mph
Humidity: 22%   Direction: 110°ESE
Pressure: 30.38"   Gusts: NA
Location:  37.6359°N, 106.449°W
Report Text: KRCV 242110Z AUTO 11009KT 10SM CLR 20/M02 A3038 RMK AO2 T01981024
Loading
Personal Weather Stations






























Interactive Weather Map
Tropical Storm Tracking
New forecast layout! Learn more

10-Day Weather Forecast

Advertisements
Track Severe Weather on mobile